createdAt,value
2017-08-01T00:03:33.182Z,100238
2017-08-01T00:06:09.831Z,100228
2017-08-01T00:08:38.104Z,100223
2017-08-01T00:11:06.323Z,100234
2017-08-01T00:13:34.560Z,100240
2017-08-01T00:16:02.821Z,100235
2017-08-01T00:21:32.513Z,100232
2017-08-01T00:24:00.730Z,100242
2017-08-01T00:26:29.724Z,100239
2017-08-01T00:29:10.946Z,100233
2017-08-01T00:31:39.185Z,100229
2017-08-01T00:34:11.116Z,100239
2017-08-01T00:36:39.333Z,100241
2017-08-01T00:39:07.569Z,100229
2017-08-01T00:41:36.610Z,100230
2017-08-01T00:44:04.850Z,100234
2017-08-01T00:46:33.836Z,100221
2017-08-01T00:49:02.873Z,100225
2017-08-01T00:51:31.084Z,100216
2017-08-01T00:53:59.306Z,100219
2017-08-01T00:59:18.802Z,100221
2017-08-01T01:02:08.445Z,100222
2017-08-01T01:04:37.546Z,100222
2017-08-01T01:07:06.589Z,100222
2017-08-01T01:09:34.811Z,100222
2017-08-01T01:12:10.361Z,100224
2017-08-01T01:14:39.364Z,100207
2017-08-01T01:17:07.589Z,100212
2017-08-01T01:19:35.849Z,100213
2017-08-01T01:22:04.089Z,100207
2017-08-01T01:24:32.316Z,100206
2017-08-01T01:27:00.577Z,100207
2017-08-01T01:32:28.667Z,100204
2017-08-01T01:34:56.874Z,100205
2017-08-01T01:37:25.099Z,100198
2017-08-01T01:39:53.380Z,100198
2017-08-01T01:42:21.616Z,100193
2017-08-01T01:44:50.597Z,100198
2017-08-01T01:47:19.648Z,100194
2017-08-01T01:49:47.864Z,100201
2017-08-01T01:52:16.084Z,100189
2017-08-01T01:54:44.344Z,100191
2017-08-01T01:57:12.559Z,100200
2017-08-01T01:59:40.791Z,100190
2017-08-01T02:02:09.042Z,100192
2017-08-01T02:04:38.026Z,100187
2017-08-01T02:07:09.982Z,100188
2017-08-01T02:09:38.219Z,100193
2017-08-01T02:12:10.027Z,100189
2017-08-01T02:14:39.011Z,100191
2017-08-01T02:17:07.252Z,100195
2017-08-01T02:19:35.524Z,100183
2017-08-01T02:22:03.763Z,100187
2017-08-01T02:24:31.985Z,100193
2017-08-01T02:27:00.251Z,100193
2017-08-01T02:29:28.510Z,100190
2017-08-01T02:31:56.732Z,100199
2017-08-01T02:37:25.834Z,100190
2017-08-01T02:40:10.664Z,100189
2017-08-01T02:42:38.925Z,100193
2017-08-01T02:45:07.397Z,100197
2017-08-01T02:47:36.398Z,100197
2017-08-01T02:50:04.672Z,100192
2017-08-01T02:52:32.888Z,100185
2017-08-01T02:55:01.115Z,100184
2017-08-01T02:57:30.150Z,100183
2017-08-01T02:59:58.382Z,100186
2017-08-01T03:05:27.643Z,100176
2017-08-01T03:07:55.897Z,100186
2017-08-01T03:10:24.150Z,100175
2017-08-01T03:12:53.174Z,100180
2017-08-01T03:15:21.396Z,100188
2017-08-01T03:17:49.613Z,100180
2017-08-01T03:20:17.869Z,100177
2017-08-01T03:22:46.853Z,100179
2017-08-01T03:25:15.855Z,100186
2017-08-01T03:27:44.872Z,100180
2017-08-01T03:33:13.309Z,100179
2017-08-01T03:35:41.532Z,100177
2017-08-01T03:38:09.746Z,100183
2017-08-01T03:40:38.127Z,100178
2017-08-01T03:43:06.352Z,100183
2017-08-01T03:45:34.598Z,100186
2017-08-01T03:48:02.863Z,100191
2017-08-01T03:50:31.083Z,100186
2017-08-01T03:52:59.310Z,100193
2017-08-01T03:55:27.567Z,100186
2017-08-01T03:58:09.065Z,100182
2017-08-01T04:00:37.327Z,100197
2017-08-01T04:03:11.725Z,100188
2017-08-01T04:05:40.002Z,100187
2017-08-01T04:08:08.245Z,100190
2017-08-01T04:10:37.255Z,100193
2017-08-01T04:13:11.497Z,100197
2017-08-01T04:15:39.757Z,100193
2017-08-01T04:18:09.875Z,100195
2017-08-01T04:20:38.126Z,100199
2017-08-01T04:23:07.123Z,100197
2017-08-01T04:25:36.124Z,100204
2017-08-01T04:28:04.392Z,100200
2017-08-01T04:30:32.611Z,100199
2017-08-01T04:33:00.860Z,100206
2017-08-01T04:35:29.133Z,100201
2017-08-01T04:37:57.357Z,100209
2017-08-01T04:43:26.278Z,100203
2017-08-01T04:46:09.371Z,100215
2017-08-01T04:48:37.625Z,100201
2017-08-01T04:51:05.870Z,100208
2017-08-01T04:53:34.880Z,100204
2017-08-01T04:56:03.155Z,100205
2017-08-01T04:58:31.383Z,100207
2017-08-01T05:00:59.618Z,100212
2017-08-01T05:03:27.883Z,100218
2017-08-01T05:05:56.112Z,100215
2017-08-01T05:11:25.807Z,100219
2017-08-01T05:14:08.921Z,100214
2017-08-01T05:16:37.207Z,100218
2017-08-01T05:19:05.453Z,100213
2017-08-01T05:21:33.667Z,100219
2017-08-01T05:24:01.936Z,100221
2017-08-01T05:26:30.172Z,100213
2017-08-01T05:28:58.416Z,100214
2017-08-01T05:31:26.669Z,100216
2017-08-01T05:33:54.886Z,100210
2017-08-01T05:36:23.873Z,100207
2017-08-01T05:38:52.905Z,100210
2017-08-01T05:41:21.146Z,100216
2017-08-01T05:43:50.139Z,100213
2017-08-01T05:46:19.470Z,100224
2017-08-01T05:48:47.685Z,100222
2017-08-01T05:51:15.910Z,100228
2017-08-01T05:53:44.174Z,100230
2017-08-01T05:56:12.397Z,100241
2017-08-01T05:58:40.627Z,100234
2017-08-01T06:01:08.902Z,100244
2017-08-01T06:03:37.127Z,100240
2017-08-01T06:06:11.183Z,100234
2017-08-01T06:08:40.179Z,100243
2017-08-01T06:11:08.415Z,100231
2017-08-01T06:13:36.696Z,100230
2017-08-01T06:16:04.908Z,100231
2017-08-01T06:18:33.142Z,100224
2017-08-01T06:21:01.401Z,100213
2017-08-01T06:23:29.625Z,100214
2017-08-01T06:25:58.633Z,100219
2017-08-01T06:28:29.801Z,100220
2017-08-01T06:30:58.017Z,100215
2017-08-01T06:33:26.998Z,100211
2017-08-01T06:35:55.414Z,100215
2017-08-01T06:38:23.653Z,100216
2017-08-01T06:40:51.881Z,100217
2017-08-01T06:43:20.152Z,100213
2017-08-01T06:45:48.387Z,100222
2017-08-01T06:48:16.609Z,100217
2017-08-01T06:50:44.888Z,100213
2017-08-01T06:53:13.109Z,100202
2017-08-01T06:55:41.334Z,100202
2017-08-01T06:58:09.604Z,100199
2017-08-01T07:00:37.823Z,100188
2017-08-01T07:03:06.046Z,100188
2017-08-01T07:05:34.311Z,100181
2017-08-01T07:08:02.540Z,100176
2017-08-01T07:10:30.781Z,100163
2017-08-01T07:12:59.033Z,100172
2017-08-01T07:18:27.841Z,100170
2017-08-01T07:21:09.716Z,100181
2017-08-01T07:23:38.745Z,100185
2017-08-01T07:26:06.971Z,100180
2017-08-01T07:28:35.207Z,100185
2017-08-01T07:31:03.489Z,100181
2017-08-01T07:33:31.735Z,100189
2017-08-01T07:35:59.969Z,100194
2017-08-01T07:38:28.226Z,100201
2017-08-01T07:40:56.467Z,100214
2017-08-01T07:46:25.308Z,100210
2017-08-01T07:48:53.534Z,100221
2017-08-01T07:51:21.775Z,100232
2017-08-01T07:53:50.051Z,100240
2017-08-01T07:56:18.296Z,100248
2017-08-01T07:58:46.547Z,100271
2017-08-01T08:01:14.831Z,100297
2017-08-01T08:03:43.085Z,100334
2017-08-01T08:06:11.321Z,100356
2017-08-01T08:08:39.612Z,100373
2017-08-01T08:11:07.868Z,100358
2017-08-01T08:13:36.114Z,100342
2017-08-01T08:16:04.406Z,100307
2017-08-01T08:18:32.638Z,100304
2017-08-01T08:21:00.894Z,100314
2017-08-01T08:23:29.963Z,100330
2017-08-01T08:26:10.775Z,100335
2017-08-01T08:28:39.028Z,100330
2017-08-01T08:31:08.039Z,100309
2017-08-01T08:33:37.050Z,100292
2017-08-01T08:36:05.336Z,100301
2017-08-01T08:38:33.582Z,100320
2017-08-01T08:41:10.472Z,100326
2017-08-01T08:43:38.711Z,100322
2017-08-01T08:46:06.963Z,100303
2017-08-01T08:48:35.255Z,100295
2017-08-01T08:51:03.495Z,100303
2017-08-01T08:56:32.906Z,100301
2017-08-01T08:59:01.161Z,100307
2017-08-01T09:01:29.386Z,100312
2017-08-01T09:03:57.665Z,100308
2017-08-01T09:06:25.894Z,100311
2017-08-01T09:08:54.140Z,100301
2017-08-01T09:11:22.453Z,100295
2017-08-01T09:14:10.221Z,100296
2017-08-01T09:16:38.479Z,100298
2017-08-01T09:19:06.726Z,100293
2017-08-01T09:24:35.032Z,100301
2017-08-01T09:27:10.074Z,100302
2017-08-01T09:29:38.371Z,100305
2017-08-01T09:32:06.661Z,100298
2017-08-01T09:34:34.888Z,100295
2017-08-01T09:37:03.154Z,100298
2017-08-01T09:39:31.395Z,100305
2017-08-01T09:41:59.652Z,100309
2017-08-01T09:44:27.928Z,100306
2017-08-01T09:46:56.149Z,100311
2017-08-01T09:49:25.151Z,100304
2017-08-01T09:51:53.575Z,100307
2017-08-01T09:54:21.780Z,100292
2017-08-01T09:56:50.793Z,100290
2017-08-01T09:59:19.087Z,100293
2017-08-01T10:01:47.332Z,100289
2017-08-01T10:04:15.570Z,100288
2017-08-01T10:06:43.837Z,100290
2017-08-01T10:09:12.085Z,100282
2017-08-01T10:11:40.317Z,100282
2017-08-01T10:14:09.361Z,100278
2017-08-01T10:19:38.598Z,100259
2017-08-01T10:22:06.833Z,100263
2017-08-01T10:24:35.072Z,100260
2017-08-01T10:27:03.377Z,100259
2017-08-01T10:29:32.357Z,100253
2017-08-01T10:32:11.488Z,100247
2017-08-01T10:34:39.723Z,100240
2017-08-01T10:37:07.955Z,100238
2017-08-01T10:39:36.240Z,100232
2017-08-01T10:42:04.474Z,100229
2017-08-01T10:44:32.751Z,100233
2017-08-01T10:47:01.031Z,100228
2017-08-01T10:49:29.267Z,100231
2017-08-01T10:52:10.075Z,100232
2017-08-01T10:54:38.300Z,100228
2017-08-01T10:57:06.558Z,100215
2017-08-01T11:02:35.554Z,100214
2017-08-01T11:05:03.776Z,100212
2017-08-01T11:07:32.023Z,100206
2017-08-01T11:10:00.290Z,100196
2017-08-01T11:12:28.522Z,100191
2017-08-01T11:14:56.754Z,100195
2017-08-01T11:17:25.014Z,100181
2017-08-01T11:19:53.241Z,100180
2017-08-01T11:22:21.467Z,100174
2017-08-01T11:24:49.774Z,100178
2017-08-01T11:27:18.002Z,100179
2017-08-01T11:29:46.245Z,100173
2017-08-01T11:32:14.508Z,100173
2017-08-01T11:35:08.882Z,100166
2017-08-01T11:37:37.182Z,100157
2017-08-01T11:40:11.497Z,100149
2017-08-01T11:42:39.755Z,100149
2017-08-01T11:45:07.987Z,100140
2017-08-01T11:47:36.236Z,100136
2017-08-01T11:50:04.514Z,100134
2017-08-01T11:52:32.767Z,100129
2017-08-01T11:55:00.988Z,100130
2017-08-01T11:57:29.275Z,100129
2017-08-01T12:00:15.592Z,100121
2017-08-01T12:02:43.870Z,100121
2017-08-01T12:05:12.097Z,100109
2017-08-01T12:08:08.992Z,100112
2017-08-01T12:10:37.229Z,100103
2017-08-01T12:13:05.467Z,100104
2017-08-01T12:15:33.754Z,100102
2017-08-01T12:18:01.996Z,100099
2017-08-01T12:20:31.015Z,100102
2017-08-01T12:22:59.285Z,100091
2017-08-01T12:25:27.507Z,100087
2017-08-01T12:27:55.751Z,100081
2017-08-01T12:33:24.946Z,100079
2017-08-01T12:35:53.186Z,100080
2017-08-01T12:38:21.445Z,100066
2017-08-01T12:40:50.487Z,100057
2017-08-01T12:43:18.738Z,100060
2017-08-01T12:45:47.001Z,100061
2017-08-01T12:48:15.291Z,100052
2017-08-01T12:50:43.542Z,100054
2017-08-01T12:53:12.536Z,100055
2017-08-01T12:55:41.529Z,100046
2017-08-01T12:58:09.763Z,100041
2017-08-01T13:00:38.005Z,100048
2017-08-01T13:03:12.096Z,100045
2017-08-01T13:05:40.338Z,100045
2017-08-01T13:08:08.558Z,100040
2017-08-01T13:10:37.750Z,100042
2017-08-01T13:13:05.996Z,100044
2017-08-01T13:15:35.266Z,100039
2017-08-01T13:18:03.557Z,100045
2017-08-01T13:20:31.793Z,100036
2017-08-01T13:25:38.100Z,100032
2017-08-01T13:28:06.326Z,100029
2017-08-01T13:30:34.555Z,100033
2017-08-01T13:33:02.846Z,100025
2017-08-01T13:35:31.074Z,100020
2017-08-01T13:37:59.318Z,100024
2017-08-01T13:43:28.465Z,100012
2017-08-01T13:46:09.315Z,100009
2017-08-01T13:48:38.447Z,100006
2017-08-01T13:51:06.677Z,99997
2017-08-01T13:53:34.914Z,99994
2017-08-01T13:56:03.576Z,99994
2017-08-01T13:58:31.812Z,99991
2017-08-01T14:01:09.739Z,99991
2017-08-01T14:03:37.982Z,99992
2017-08-01T14:06:06.211Z,99993
2017-08-01T14:08:34.477Z,99992
2017-08-01T14:11:02.706Z,99987
2017-08-01T14:16:31.409Z,99986
2017-08-01T14:18:59.659Z,99990
2017-08-01T14:21:27.894Z,99985
2017-08-01T14:23:56.165Z,99988
2017-08-01T14:26:24.392Z,99986
2017-08-01T14:29:09.510Z,99982
2017-08-01T14:31:37.747Z,99971
2017-08-01T14:34:06.742Z,99978
2017-08-01T14:42:36.123Z,99971
2017-08-01T14:45:04.365Z,99968
2017-08-01T14:47:33.351Z,99978
2017-08-01T14:50:01.655Z,99976
2017-08-01T14:52:29.889Z,99975
2017-08-01T14:54:58.130Z,99976
2017-08-01T15:00:26.294Z,99979
2017-08-01T15:02:54.526Z,99974
2017-08-01T15:05:22.777Z,99980
2017-08-01T15:08:10.638Z,99977
2017-08-01T15:11:08.892Z,99980
2017-08-01T15:13:37.167Z,99982
2017-08-01T15:16:05.408Z,99982
2017-08-01T15:18:33.656Z,99974
2017-08-01T15:21:02.730Z,99971
2017-08-01T15:23:30.988Z,99978
2017-08-01T15:25:59.216Z,99973
2017-08-01T15:28:27.485Z,99979
2017-08-01T15:30:56.482Z,99969
2017-08-01T15:33:24.731Z,99971
2017-08-01T15:35:53.768Z,99974
2017-08-01T15:40:57.038Z,99975
2017-08-01T15:43:25.270Z,99974
2017-08-01T15:45:53.488Z,99970
2017-08-01T15:48:22.403Z,99972
2017-08-01T15:50:50.638Z,99965
2017-08-01T15:53:18.872Z,99971
2017-08-01T15:55:47.142Z,99963
2017-08-01T15:58:15.381Z,99955
2017-08-01T16:00:44.378Z,99948
2017-08-01T16:06:12.542Z,99950
2017-08-01T16:08:40.761Z,99952
2017-08-01T16:11:08.988Z,99949
2017-08-01T16:13:37.270Z,99953
2017-08-01T16:16:05.511Z,99955
2017-08-01T16:18:33.738Z,99951
2017-08-01T16:21:02.792Z,99941
2017-08-01T16:23:31.022Z,99949
2017-08-01T16:25:59.255Z,99951
2017-08-01T16:28:27.521Z,99956
2017-08-01T16:31:09.762Z,99955
2017-08-01T16:33:38.030Z,99953
2017-08-01T16:36:06.264Z,99950
2017-08-01T16:38:34.504Z,99950
2017-08-01T16:41:02.765Z,99950
2017-08-01T16:46:31.805Z,99941
2017-08-01T16:49:00.041Z,99945
2017-08-01T16:51:28.282Z,99943
2017-08-01T16:53:56.549Z,99935
2017-08-01T16:56:24.796Z,99935
2017-08-01T16:58:53.050Z,99933
2017-08-01T17:01:21.301Z,99928
2017-08-01T17:03:49.529Z,99931
2017-08-01T17:06:17.747Z,99935
2017-08-01T17:08:46.001Z,99943
2017-08-01T17:11:14.251Z,99942
2017-08-01T17:14:08.705Z,99938
2017-08-01T17:16:36.931Z,99932
2017-08-01T17:19:05.176Z,99936
2017-08-01T17:21:33.461Z,99933
2017-08-01T17:24:01.695Z,99928
2017-08-01T17:26:29.911Z,99937
2017-08-01T17:28:58.184Z,99936
2017-08-01T17:31:26.432Z,99937
2017-08-01T17:33:54.666Z,99937
2017-08-01T17:36:22.962Z,99936
2017-08-01T17:38:51.205Z,99943
2017-08-01T17:41:19.428Z,99934
2017-08-01T17:43:47.691Z,99945
2017-08-01T17:46:15.921Z,99935
2017-08-01T17:48:44.162Z,99935
2017-08-01T17:51:12.410Z,99945
2017-08-01T17:53:40.644Z,99945
2017-08-01T17:56:08.875Z,99950
2017-08-01T17:58:37.218Z,99952
2017-08-01T18:01:05.447Z,99951
2017-08-01T18:03:34.447Z,99949
2017-08-01T18:06:02.715Z,99950
2017-08-01T18:08:30.951Z,99953
2017-08-01T18:11:12.222Z,99950
2017-08-01T18:13:40.456Z,99951
2017-08-01T18:16:08.717Z,99947
2017-08-01T18:18:36.969Z,99945
2017-08-01T18:21:05.183Z,99951
2017-08-01T18:29:33.079Z,99954
2017-08-01T18:32:01.331Z,99954
2017-08-01T18:34:30.343Z,99947
2017-08-01T18:37:11.517Z,99942
2017-08-01T18:39:39.757Z,99945
2017-08-01T18:42:07.986Z,99945
2017-08-01T18:44:36.267Z,99942
2017-08-01T18:47:10.434Z,99939
2017-08-01T18:49:38.720Z,99931
2017-08-01T18:52:11.042Z,99929
2017-08-01T18:57:39.682Z,99924
2017-08-01T19:00:11.191Z,99924
2017-08-01T19:02:39.432Z,99919
2017-08-01T19:05:10.743Z,99914
2017-08-01T19:07:38.968Z,99911
2017-08-01T19:10:07.199Z,99907
2017-08-01T19:18:36.600Z,99904
2017-08-01T19:21:04.821Z,99908
2017-08-01T19:23:33.042Z,99911
2017-08-01T19:26:01.347Z,99918
2017-08-01T19:28:29.594Z,99916
2017-08-01T19:30:57.820Z,99915
2017-08-01T19:33:26.103Z,99930
2017-08-01T19:36:10.731Z,99924
2017-08-01T19:38:39.992Z,99916
2017-08-01T19:41:08.297Z,99916
2017-08-01T19:43:36.557Z,99924
2017-08-01T19:46:10.738Z,99934
2017-08-01T19:49:09.329Z,99939
2017-08-01T19:51:38.399Z,99933
2017-08-01T19:54:07.447Z,99943
2017-08-01T19:59:36.075Z,99942
2017-08-01T20:02:10.538Z,99944
2017-08-01T20:04:38.855Z,99939
2017-08-01T20:07:07.072Z,99924
2017-08-01T20:09:35.397Z,99921
2017-08-01T20:12:10.289Z,99905
2017-08-01T20:14:38.543Z,99906
2017-08-01T20:17:09.858Z,99903
2017-08-01T20:19:38.142Z,99899
2017-08-01T20:22:06.370Z,99888
2017-08-01T20:27:36.272Z,99892
2017-08-01T20:30:04.496Z,99891
2017-08-01T20:32:32.722Z,99879
2017-08-01T20:35:01.021Z,99878
2017-08-01T20:37:30.035Z,99882
2017-08-01T20:40:09.805Z,99889
2017-08-01T20:42:38.095Z,99891
2017-08-01T20:45:13.238Z,99895
2017-08-01T20:50:42.433Z,99900
2017-08-01T20:53:11.601Z,99898
2017-08-01T20:58:23.587Z,99891
2017-08-01T21:01:11.199Z,99891
2017-08-01T21:03:39.481Z,99889
2017-08-01T21:06:07.700Z,99890
2017-08-01T21:08:35.949Z,99884
2017-08-01T21:11:10.503Z,99885
2017-08-01T21:14:09.030Z,99875
2017-08-01T21:16:37.659Z,99860
2017-08-01T21:19:05.902Z,99852
2017-08-01T21:21:34.133Z,99858
2017-08-01T21:24:09.982Z,99862
2017-08-01T21:27:08.500Z,99865
2017-08-01T21:35:37.437Z,99905
2017-08-01T21:38:11.801Z,99913
2017-08-01T21:40:40.081Z,99916
2017-08-01T21:43:08.333Z,99919
2017-08-01T21:45:37.345Z,99918
2017-08-01T21:48:05.637Z,99932
2017-08-01T21:50:33.850Z,99923
2017-08-01T21:53:02.112Z,99935
2017-08-01T21:58:31.163Z,99926
2017-08-01T22:01:12.106Z,99921
2017-08-01T22:03:40.387Z,99915
2017-08-01T22:06:12.000Z,99920
2017-08-01T22:08:40.261Z,99920
2017-08-01T22:11:08.503Z,99918
2017-08-01T22:16:36.907Z,99913
2017-08-01T22:19:05.130Z,99917
2017-08-01T22:21:33.440Z,99928
2017-08-01T22:24:01.708Z,99940
2017-08-01T22:29:31.231Z,99914
2017-08-01T22:31:59.467Z,99923
2017-08-01T22:34:27.716Z,99917
2017-08-01T22:39:48.153Z,99912
2017-08-01T22:42:16.427Z,99919
2017-08-01T22:44:44.649Z,99956
2017-08-01T22:47:12.930Z,99963
2017-08-01T22:49:41.202Z,99953
2017-08-01T22:52:11.004Z,99952
2017-08-01T22:54:39.243Z,99947
2017-08-01T22:57:10.421Z,99949
2017-08-01T22:59:38.641Z,99960
2017-08-01T23:02:07.652Z,99968
2017-08-01T23:04:36.178Z,99973
2017-08-01T23:07:04.408Z,99973
2017-08-01T23:09:32.642Z,99977
2017-08-01T23:12:12.091Z,99979
2017-08-01T23:14:40.386Z,99998
2017-08-01T23:17:09.405Z,100022
2017-08-01T23:19:37.686Z,100041
2017-08-01T23:22:05.934Z,100044
2017-08-01T23:27:34.826Z,100028
2017-08-01T23:30:10.704Z,100034
2017-08-01T23:32:39.009Z,100033
2017-08-01T23:35:10.441Z,100029
2017-08-01T23:37:38.720Z,100031
2017-08-01T23:40:06.966Z,100032
2017-08-01T23:42:35.974Z,100054
2017-08-01T23:45:04.250Z,100097
2017-08-01T23:47:32.480Z,100167
2017-08-01T23:50:00.714Z,100173
2017-08-01T23:52:29.033Z,100186
2017-08-01T23:55:09.871Z,100203
2017-08-01T23:57:38.140Z,100211
